Time;durP1;ratioP1;P1;durP2;ratioP2;P2;SDS_P1;SDS_P2;PMS_P1;PMS_P2;Temp;Humidity;BMP_temperature;BMP_pressure;BME280_temperature;BME280_humidity;BME280_pressure;Samples;Min_cycle;Max_cycle;Signal;HPM_P1;HPM_P2
2022/08/27 00:00:40;;;;;;;;;;;22.40;80.10;;;;;;5128557;27;19942;-66
2022/08/27 00:03:07;;;;;;;;;;;22.40;80.30;;;;;;5134242;27;20019;-66
2022/08/27 00:05:40;;;;;;;;;;;22.30;80.40;;;;;;5134618;27;20008;-66
2022/08/27 00:08:08;;;;;;;;;;;22.30;80.50;;;;;;5133560;27;19919;-66
2022/08/27 00:10:37;;;;;;;;;;;22.30;80.50;;;;;;5125633;27;19966;-66
2022/08/27 00:13:04;;;;;;;;;;;22.40;80.60;;;;;;5131611;27;19923;-65
2022/08/27 00:15:32;;;;;;;;;;;22.30;80.40;;;;;;5128034;27;19924;-66
2022/08/27 00:17:58;;;;;;;;;;;22.30;80.70;;;;;;5133710;27;19920;-66
2022/08/27 00:20:26;;;;;;;;;;;22.30;80.80;;;;;;5126320;27;19927;-66
2022/08/27 00:22:53;;;;;;;;;;;22.30;80.80;;;;;;5133985;27;19966;-65
2022/08/27 00:25:20;;;;;;;;;;;22.30;80.80;;;;;;5136424;27;19926;-65
2022/08/27 00:27:48;;;;;;;;;;;22.20;81.00;;;;;;5128439;27;19919;-66
2022/08/27 00:30:16;;;;;;;;;;;22.30;80.70;;;;;;5132927;27;19923;-66
2022/08/27 00:32:43;;;;;;;;;;;22.30;80.70;;;;;;5123853;27;19919;-66
2022/08/27 00:35:10;;;;;;;;;;;22.30;80.70;;;;;;5134038;27;20021;-66
2022/08/27 00:37:37;;;;;;;;;;;22.30;80.70;;;;;;5129056;27;19962;-64
2022/08/27 00:40:05;;;;;;;;;;;22.30;80.70;;;;;;5132895;27;19930;-66
2022/08/27 00:42:31;;;;;;;;;;;22.30;80.70;;;;;;5133865;27;19950;-66
2022/08/27 00:45:00;;;;;;;;;;;22.30;80.70;;;;;;5129037;27;19927;-66
2022/08/27 00:47:29;;;;;;;;;;;22.30;80.80;;;;;;5124374;27;19919;-65
2022/08/27 00:49:57;;;;;;;;;;;22.20;81.00;;;;;;5130244;27;19923;-65
2022/08/27 00:52:26;;;;;;;;;;;22.20;81.00;;;;;;5133215;27;19930;-67
2022/08/27 00:54:56;;;;;;;;;;;22.20;80.90;;;;;;5132893;27;19919;-66
2022/08/27 00:57:23;;;;;;;;;;;22.20;80.80;;;;;;5133104;27;19954;-66
2022/08/27 00:59:50;;;;;;;;;;;22.20;80.90;;;;;;5128861;27;20363;-65
2022/08/27 01:02:18;;;;;;;;;;;22.20;80.90;;;;;;5130246;27;19942;-66
2022/08/27 01:04:46;;;;;;;;;;;22.20;80.80;;;;;;5131440;27;19919;-65
2022/08/27 01:07:13;;;;;;;;;;;22.30;80.70;;;;;;5130954;27;19927;-68
2022/08/27 01:09:41;;;;;;;;;;;22.30;80.60;;;;;;5129590;27;19954;-66
2022/08/27 01:12:09;;;;;;;;;;;22.30;80.70;;;;;;5132765;27;19931;-66
2022/08/27 01:14:36;;;;;;;;;;;22.30;80.60;;;;;;5132721;27;19972;-66
2022/08/27 01:17:04;;;;;;;;;;;22.30;80.50;;;;;;5125912;27;19919;-66
2022/08/27 01:19:34;;;;;;;;;;;22.20;80.40;;;;;;5133744;27;20399;-66
2022/08/27 01:22:06;;;;;;;;;;;22.20;80.40;;;;;;5128114;27;19941;-66
2022/08/27 01:24:36;;;;;;;;;;;22.20;80.40;;;;;;5134017;27;19919;-66
2022/08/27 01:27:05;;;;;;;;;;;22.20;80.30;;;;;;5132346;27;20214;-66
2022/08/27 01:29:31;;;;;;;;;;;22.20;80.10;;;;;;5132339;27;19919;-66
2022/08/27 01:31:59;;;;;;;;;;;22.20;80.10;;;;;;5130297;27;19982;-66
2022/08/27 01:34:25;;;;;;;;;;;22.10;80.10;;;;;;5128062;27;19919;-66
2022/08/27 01:36:52;;;;;;;;;;;22.10;80.00;;;;;;5130463;27;19923;-65
2022/08/27 01:39:19;;;;;;;;;;;22.10;80.00;;;;;;5127105;27;20365;-65
2022/08/27 01:41:47;;;;;;;;;;;22.10;80.10;;;;;;5130534;27;20436;-66
2022/08/27 01:44:14;;;;;;;;;;;22.10;80.10;;;;;;5131575;27;19927;-66
2022/08/27 01:46:40;;;;;;;;;;;22.10;80.10;;;;;;5130379;27;19919;-66
2022/08/27 01:49:09;;;;;;;;;;;22.10;80.00;;;;;;5130741;27;19925;-66
2022/08/27 01:51:36;;;;;;;;;;;22.00;80.00;;;;;;5131964;27;20461;-66
2022/08/27 01:54:03;;;;;;;;;;;22.00;80.00;;;;;;5128572;27;19930;-65
2022/08/27 01:56:29;;;;;;;;;;;22.00;80.00;;;;;;5130996;27;19919;-66
2022/08/27 01:58:57;;;;;;;;;;;22.00;80.00;;;;;;5129631;27;20327;-66
2022/08/27 02:01:24;;;;;;;;;;;21.90;80.00;;;;;;5130446;27;19922;-66
2022/08/27 02:03:51;;;;;;;;;;;22.00;80.20;;;;;;5133605;27;19926;-66
2022/08/27 02:06:17;;;;;;;;;;;22.00;80.10;;;;;;5130438;27;19919;-66
2022/08/27 02:08:44;;;;;;;;;;;22.00;80.20;;;;;;5130242;27;19950;-65
2022/08/27 02:11:11;;;;;;;;;;;22.00;80.50;;;;;;5131153;27;19926;-66
2022/08/27 02:13:38;;;;;;;;;;;22.00;80.60;;;;;;5131331;27;19935;-65
2022/08/27 02:16:06;;;;;;;;;;;21.90;80.80;;;;;;5128629;27;19926;-65
2022/08/27 02:18:35;;;;;;;;;;;21.90;81.20;;;;;;5121763;27;19991;-65
2022/08/27 02:21:02;;;;;;;;;;;21.90;81.30;;;;;;5131135;27;19958;-65
2022/08/27 02:23:30;;;;;;;;;;;21.90;81.50;;;;;;5125601;27;19919;-66
2022/08/27 02:25:57;;;;;;;;;;;21.90;81.50;;;;;;5129926;27;19920;-65
2022/08/27 02:28:23;;;;;;;;;;;21.90;81.40;;;;;;5137692;27;20623;-65
2022/08/27 02:30:50;;;;;;;;;;;21.80;81.60;;;;;;5135116;27;19931;-65
2022/08/27 02:33:18;;;;;;;;;;;21.90;81.50;;;;;;5125735;27;19920;-66
2022/08/27 02:35:45;;;;;;;;;;;21.80;81.70;;;;;;5126219;27;20338;-66
2022/08/27 02:38:12;;;;;;;;;;;21.80;81.80;;;;;;5130045;27;19919;-66
2022/08/27 02:40:39;;;;;;;;;;;21.80;81.80;;;;;;5127211;27;19951;-66
2022/08/27 02:43:06;;;;;;;;;;;21.80;81.70;;;;;;5128783;27;20229;-66
2022/08/27 02:45:33;;;;;;;;;;;21.80;81.80;;;;;;5128698;27;20034;-66
2022/08/27 02:48:00;;;;;;;;;;;21.80;81.70;;;;;;5130032;27;19984;-66
2022/08/27 02:50:29;;;;;;;;;;;21.80;81.70;;;;;;5128689;27;19955;-66
2022/08/27 02:52:56;;;;;;;;;;;21.80;81.80;;;;;;5131540;27;19923;-66
2022/08/27 02:55:23;;;;;;;;;;;21.80;81.80;;;;;;5132317;27;19927;-65
2022/08/27 02:57:50;;;;;;;;;;;21.80;81.80;;;;;;5141030;27;20017;-66
2022/08/27 03:00:18;;;;;;;;;;;21.80;81.90;;;;;;5125040;27;19926;-66
2022/08/27 03:02:45;;;;;;;;;;;21.80;81.80;;;;;;5125364;27;19926;-66
2022/08/27 03:05:13;;;;;;;;;;;21.80;81.70;;;;;;5132235;27;19927;-66
2022/08/27 03:07:41;;;;;;;;;;;21.80;81.80;;;;;;5126360;27;19942;-66
2022/08/27 03:10:09;;;;;;;;;;;21.80;82.00;;;;;;5130499;27;19926;-66
2022/08/27 03:12:36;;;;;;;;;;;21.70;82.00;;;;;;5134691;27;20276;-66
2022/08/27 03:15:03;;;;;;;;;;;21.70;82.00;;;;;;5132471;27;19919;-66
2022/08/27 03:20:13;;;;;;;;;;;21.80;81.80;;;;;;5131808;27;19934;-66
2022/08/27 03:22:42;;;;;;;;;;;21.80;81.70;;;;;;5132372;27;19920;-66
2022/08/27 03:25:09;;;;;;;;;;;21.80;81.60;;;;;;5130755;27;19927;-66
2022/08/27 03:27:36;;;;;;;;;;;21.80;81.50;;;;;;5134037;27;19923;-65
2022/08/27 03:30:03;;;;;;;;;;;21.80;81.60;;;;;;5134421;27;19930;-66
2022/08/27 03:32:29;;;;;;;;;;;21.80;81.60;;;;;;5132163;27;19930;-66
2022/08/27 03:34:57;;;;;;;;;;;21.80;81.40;;;;;;5133640;27;19934;-66
2022/08/27 03:37:24;;;;;;;;;;;21.90;81.30;;;;;;5131187;27;19952;-66
2022/08/27 03:39:52;;;;;;;;;;;21.90;81.40;;;;;;5128541;27;20430;-66
2022/08/27 03:42:18;;;;;;;;;;;21.80;81.40;;;;;;5132677;27;19919;-65
2022/08/27 03:44:45;;;;;;;;;;;21.80;81.70;;;;;;5118033;27;19946;-65
2022/08/27 03:47:12;;;;;;;;;;;21.70;81.80;;;;;;5128291;27;19931;-65
2022/08/27 03:49:39;;;;;;;;;;;21.70;81.80;;;;;;5132503;27;19954;-65
2022/08/27 03:52:06;;;;;;;;;;;21.70;81.90;;;;;;5134713;27;19930;-65
2022/08/27 03:54:34;;;;;;;;;;;21.70;82.00;;;;;;5127485;27;20441;-66
2022/08/27 03:57:03;;;;;;;;;;;21.60;81.90;;;;;;5134277;27;19968;-66
2022/08/27 03:59:29;;;;;;;;;;;21.70;81.80;;;;;;5131798;27;19919;-66
2022/08/27 04:01:56;;;;;;;;;;;21.60;81.90;;;;;;5128008;27;19933;-66
2022/08/27 04:04:23;;;;;;;;;;;21.60;82.00;;;;;;5132626;27;20345;-66
2022/08/27 04:06:50;;;;;;;;;;;21.60;82.20;;;;;;5128079;27;19933;-66
2022/08/27 04:09:17;;;;;;;;;;;21.60;82.00;;;;;;5133789;27;19928;-66
2022/08/27 04:11:44;;;;;;;;;;;21.70;81.80;;;;;;5132828;27;20403;-66
2022/08/27 04:14:12;;;;;;;;;;;21.60;81.80;;;;;;5134170;27;19926;-66
2022/08/27 04:16:40;;;;;;;;;;;21.60;81.80;;;;;;5134104;27;19919;-66
2022/08/27 04:19:07;;;;;;;;;;;21.60;81.80;;;;;;5127780;27;19931;-66
2022/08/27 04:21:34;;;;;;;;;;;21.60;81.70;;;;;;5132925;27;19919;-66
2022/08/27 04:24:01;;;;;;;;;;;21.70;81.70;;;;;;5131750;27;19919;-66
2022/08/27 04:26:28;;;;;;;;;;;21.70;81.80;;;;;;5134153;27;19920;-66
2022/08/27 04:28:56;;;;;;;;;;;21.60;81.80;;;;;;5133502;27;19920;-66
2022/08/27 04:31:25;;;;;;;;;;;21.60;81.80;;;;;;5131571;27;20021;-66
2022/08/27 04:33:52;;;;;;;;;;;21.60;81.70;;;;;;5126448;27;19942;-64
2022/08/27 04:36:19;;;;;;;;;;;21.60;81.90;;;;;;5134268;27;19919;-66
2022/08/27 04:38:46;;;;;;;;;;;21.70;81.60;;;;;;5131392;27;19919;-66
2022/08/27 04:41:20;;;;;;;;;;;21.70;81.50;;;;;;5129317;27;20420;-65
2022/08/27 04:43:47;;;;;;;;;;;21.70;81.40;;;;;;5133590;27;19926;-66
2022/08/27 04:46:13;;;;;;;;;;;21.70;81.20;;;;;;5133074;27;19927;-65
2022/08/27 04:48:41;;;;;;;;;;;21.80;81.20;;;;;;5127189;27;19933;-65
2022/08/27 04:51:08;;;;;;;;;;;21.80;81.10;;;;;;5131263;27;19947;-66
2022/08/27 04:53:35;;;;;;;;;;;21.70;81.10;;;;;;5130853;27;20357;-65
2022/08/27 04:56:02;;;;;;;;;;;21.80;81.10;;;;;;5133248;27;19927;-66
2022/08/27 04:58:29;;;;;;;;;;;21.70;81.20;;;;;;5138033;27;19919;-65
2022/08/27 05:00:58;;;;;;;;;;;21.70;81.40;;;;;;5131138;27;19919;-65
2022/08/27 05:03:25;;;;;;;;;;;21.70;81.30;;;;;;5127621;27;20383;-66
2022/08/27 05:05:58;;;;;;;;;;;21.70;81.30;;;;;;5133070;27;20375;-65
2022/08/27 05:08:25;;;;;;;;;;;21.70;81.40;;;;;;5135205;27;19946;-65
2022/08/27 05:10:52;;;;;;;;;;;21.60;81.50;;;;;;5132801;27;19926;-65
2022/08/27 05:13:22;;;;;;;;;;;21.60;81.70;;;;;;5131533;27;19923;-65
2022/08/27 05:15:49;;;;;;;;;;;21.60;81.70;;;;;;5132081;27;19923;-66
2022/08/27 05:18:16;;;;;;;;;;;21.60;81.80;;;;;;5129650;27;20107;-66
2022/08/27 05:20:44;;;;;;;;;;;21.60;81.60;;;;;;5129880;27;19964;-66
2022/08/27 05:23:12;;;;;;;;;;;21.60;81.50;;;;;;5130757;27;19919;-66
2022/08/27 05:25:40;;;;;;;;;;;21.60;81.40;;;;;;5128298;27;20451;-66
2022/08/27 05:28:08;;;;;;;;;;;21.60;81.40;;;;;;5131950;27;19919;-66
2022/08/27 05:30:39;;;;;;;;;;;21.60;81.40;;;;;;5129005;27;19939;-66
2022/08/27 05:33:06;;;;;;;;;;;21.70;81.30;;;;;;5129038;27;19964;-66
2022/08/27 05:35:33;;;;;;;;;;;21.70;81.20;;;;;;5131009;27;19927;-67
2022/08/27 05:37:59;;;;;;;;;;;21.80;81.10;;;;;;5128673;27;19923;-66
2022/08/27 05:40:28;;;;;;;;;;;21.80;81.00;;;;;;5127865;27;19938;-66
2022/08/27 05:42:54;;;;;;;;;;;21.80;81.00;;;;;;5132576;27;19923;-67
2022/08/27 05:45:21;;;;;;;;;;;21.80;80.90;;;;;;5132544;27;20322;-66
2022/08/27 05:47:48;;;;;;;;;;;21.90;80.80;;;;;;5128975;27;19919;-66
2022/08/27 05:50:15;;;;;;;;;;;21.90;80.80;;;;;;5127401;27;19935;-66
2022/08/27 05:52:41;;;;;;;;;;;21.90;80.80;;;;;;5128334;27;19929;-66
2022/08/27 05:55:08;;;;;;;;;;;21.90;80.70;;;;;;5131110;27;20361;-66
2022/08/27 05:57:36;;;;;;;;;;;21.90;80.20;;;;;;5124621;27;19927;-66
2022/08/27 06:02:49;;;;;;;;;;;21.90;79.10;;;;;;5125847;27;20369;-66
2022/08/27 06:05:16;;;;;;;;;;;22.00;78.50;;;;;;5132070;27;19941;-67
2022/08/27 06:07:42;;;;;;;;;;;22.00;78.40;;;;;;5120259;27;20281;-66
2022/08/27 06:10:09;;;;;;;;;;;22.10;78.10;;;;;;5131455;27;19943;-65
2022/08/27 06:12:37;;;;;;;;;;;22.10;77.70;;;;;;5130318;27;19926;-66
2022/08/27 06:15:05;;;;;;;;;;;22.10;77.30;;;;;;5127507;27;19930;-67
2022/08/27 06:17:32;;;;;;;;;;;22.10;77.00;;;;;;5131199;27;19945;-65
2022/08/27 06:19:58;;;;;;;;;;;22.10;76.80;;;;;;5126070;27;20295;-65
2022/08/27 06:22:25;;;;;;;;;;;22.10;76.70;;;;;;5135780;27;19931;-66
2022/08/27 06:24:52;;;;;;;;;;;22.20;76.80;;;;;;5132253;27;20420;-66
2022/08/27 06:27:19;;;;;;;;;;;22.20;76.40;;;;;;5124242;27;19925;-66
2022/08/27 06:29:47;;;;;;;;;;;22.30;76.20;;;;;;5131850;27;19920;-66
2022/08/27 06:32:14;;;;;;;;;;;22.30;76.20;;;;;;5140586;27;19946;-66
2022/08/27 06:34:41;;;;;;;;;;;22.20;76.00;;;;;;5131808;27;19919;-66
2022/08/27 06:37:08;;;;;;;;;;;22.30;75.90;;;;;;5136031;27;19925;-65
2022/08/27 06:39:35;;;;;;;;;;;22.40;75.60;;;;;;5127153;27;19924;-66
2022/08/27 06:42:02;;;;;;;;;;;22.50;75.20;;;;;;5133726;27;20365;-65
2022/08/27 06:44:32;;;;;;;;;;;22.60;75.40;;;;;;5134760;27;19984;-65
2022/08/27 06:47:02;;;;;;;;;;;22.80;74.90;;;;;;5135026;27;19919;-67
2022/08/27 06:49:29;;;;;;;;;;;22.90;75.10;;;;;;5124404;27;19922;-65
2022/08/27 06:51:56;;;;;;;;;;;22.90;74.70;;;;;;5126711;27;20313;-66
2022/08/27 06:54:23;;;;;;;;;;;23.00;74.30;;;;;;5135826;27;19923;-66
2022/08/27 06:56:50;;;;;;;;;;;23.10;74.20;;;;;;5130943;27;19926;-66
2022/08/27 06:59:17;;;;;;;;;;;23.00;73.50;;;;;;5131186;27;20446;-67
2022/08/27 07:01:45;;;;;;;;;;;23.00;73.90;;;;;;5131272;27;19920;-66
2022/08/27 07:04:17;;;;;;;;;;;23.00;74.00;;;;;;5134595;27;20010;-66
2022/08/27 07:06:44;;;;;;;;;;;23.10;73.20;;;;;;5133171;27;20173;-66
2022/08/27 07:09:10;;;;;;;;;;;23.10;73.00;;;;;;5134692;27;19967;-67
2022/08/27 07:11:38;;;;;;;;;;;23.10;73.00;;;;;;5135096;27;19923;-66
2022/08/27 07:14:05;;;;;;;;;;;23.20;72.90;;;;;;5135236;27;19927;-66
2022/08/27 07:16:32;;;;;;;;;;;23.20;72.10;;;;;;5121379;27;19920;-66
2022/08/27 07:19:00;;;;;;;;;;;23.30;72.50;;;;;;5128518;27;19919;-67
2022/08/27 07:21:29;;;;;;;;;;;23.50;72.30;;;;;;5125565;27;19951;-66
2022/08/27 07:23:57;;;;;;;;;;;23.60;71.50;;;;;;5132532;27;19934;-67
2022/08/27 07:26:25;;;;;;;;;;;23.70;71.50;;;;;;5128288;27;19920;-66
2022/08/27 07:28:52;;;;;;;;;;;23.90;71.20;;;;;;5131173;27;19920;-66
2022/08/27 07:31:20;;;;;;;;;;;24.00;70.80;;;;;;5133473;27;19919;-66
2022/08/27 07:33:47;;;;;;;;;;;23.90;70.40;;;;;;5127857;27;19931;-66
2022/08/27 07:36:13;;;;;;;;;;;23.90;70.50;;;;;;5130610;27;19926;-67
2022/08/27 07:38:41;;;;;;;;;;;24.00;70.10;;;;;;5125776;27;19923;-65
2022/08/27 07:41:09;;;;;;;;;;;23.90;70.10;;;;;;5129676;27;19923;-67
2022/08/27 07:46:22;;;;;;;;;;;23.90;70.40;;;;;;5133831;27;19984;-66
2022/08/27 07:48:49;;;;;;;;;;;23.80;70.50;;;;;;5126865;27;19919;-66
2022/08/27 07:51:16;;;;;;;;;;;23.80;71.00;;;;;;5134402;27;19929;-66
2022/08/27 07:53:44;;;;;;;;;;;23.70;71.10;;;;;;5132730;27;19937;-66
2022/08/27 07:56:11;;;;;;;;;;;23.80;71.30;;;;;;5128371;27;19923;-66
2022/08/27 07:58:38;;;;;;;;;;;23.70;71.40;;;;;;5136418;27;19965;-67
2022/08/27 08:01:05;;;;;;;;;;;23.60;71.50;;;;;;5131357;27;20017;-67
2022/08/27 08:03:32;;;;;;;;;;;23.60;71.80;;;;;;5134663;27;19926;-66
2022/08/27 08:06:02;;;;;;;;;;;23.60;71.70;;;;;;5131194;27;19972;-67
2022/08/27 08:08:29;;;;;;;;;;;23.60;71.90;;;;;;5135047;27;19920;-69
2022/08/27 08:10:58;;;;;;;;;;;23.60;71.20;;;;;;5130659;27;19966;-67
2022/08/27 08:13:25;;;;;;;;;;;23.60;70.80;;;;;;5132333;27;20026;-67
2022/08/27 08:15:52;;;;;;;;;;;23.70;70.70;;;;;;5131679;27;20308;-67
2022/08/27 08:18:19;;;;;;;;;;;23.70;70.50;;;;;;5130813;27;20323;-67
2022/08/27 08:20:46;;;;;;;;;;;23.70;70.50;;;;;;5133709;27;20345;-68
2022/08/27 08:23:13;;;;;;;;;;;23.80;70.30;;;;;;5120232;27;19927;-66
2022/08/27 08:25:40;;;;;;;;;;;23.80;69.90;;;;;;5131658;27;19930;-67
2022/08/27 08:28:10;;;;;;;;;;;23.90;69.80;;;;;;5133750;27;19930;-65
2022/08/27 08:30:37;;;;;;;;;;;23.80;69.80;;;;;;5131268;27;19926;-67
2022/08/27 08:33:04;;;;;;;;;;;23.80;69.60;;;;;;5125763;27;19936;-67
2022/08/27 08:35:30;;;;;;;;;;;23.80;69.70;;;;;;5128383;27;19919;-67
2022/08/27 08:37:57;;;;;;;;;;;23.80;69.70;;;;;;5130618;27;19927;-66
2022/08/27 08:40:28;;;;;;;;;;;23.80;69.60;;;;;;5125237;27;19928;-67
2022/08/27 08:42:55;;;;;;;;;;;23.80;69.60;;;;;;5126107;27;19919;-66
2022/08/27 08:45:26;;;;;;;;;;;23.80;69.40;;;;;;5133076;27;20413;-67
2022/08/27 08:47:56;;;;;;;;;;;23.80;69.40;;;;;;5133008;27;19926;-67
2022/08/27 08:50:25;;;;;;;;;;;23.70;69.60;;;;;;5129123;27;19919;-67
2022/08/27 08:52:54;;;;;;;;;;;23.70;69.60;;;;;;5133185;27;19919;-68
2022/08/27 08:55:28;;;;;;;;;;;23.70;69.50;;;;;;5137421;27;19919;-66
2022/08/27 08:57:58;;;;;;;;;;;23.70;69.40;;;;;;5131046;27;19927;-67
2022/08/27 09:00:27;;;;;;;;;;;23.70;69.40;;;;;;5123898;27;20371;-68
2022/08/27 09:02:54;;;;;;;;;;;23.80;69.50;;;;;;5126384;27;19920;-68
2022/08/27 09:05:21;;;;;;;;;;;23.80;69.50;;;;;;5132421;27;19924;-68
2022/08/27 09:07:53;;;;;;;;;;;23.80;69.10;;;;;;5131235;27;20010;-68
2022/08/27 09:10:24;;;;;;;;;;;23.80;69.10;;;;;;5132161;27;19934;-68
2022/08/27 09:12:52;;;;;;;;;;;23.90;69.20;;;;;;5131276;27;19919;-67
2022/08/27 09:15:20;;;;;;;;;;;23.80;69.10;;;;;;5132118;27;19942;-67
2022/08/27 09:17:49;;;;;;;;;;;23.70;69.10;;;;;;5132340;27;19968;-66
2022/08/27 09:20:18;;;;;;;;;;;23.80;69.10;;;;;;5129934;27;19927;-66
2022/08/27 09:22:51;;;;;;;;;;;23.70;69.10;;;;;;5133091;27;20390;-67
2022/08/27 09:25:19;;;;;;;;;;;23.80;68.80;;;;;;5130755;27;20198;-68
2022/08/27 09:27:46;;;;;;;;;;;23.80;68.70;;;;;;5126283;27;19923;-68
2022/08/27 09:30:19;;;;;;;;;;;23.90;68.70;;;;;;5132642;27;19919;-68
2022/08/27 09:32:54;;;;;;;;;;;23.90;68.80;;;;;;5127969;27;19923;-68
2022/08/27 09:35:24;;;;;;;;;;;23.90;68.80;;;;;;5132528;27;20443;-68
2022/08/27 09:37:53;;;;;;;;;;;23.90;68.70;;;;;;5133430;27;20345;-66
2022/08/27 09:40:23;;;;;;;;;;;23.90;68.70;;;;;;5128493;27;20014;-65
2022/08/27 09:42:52;;;;;;;;;;;23.80;68.80;;;;;;5130948;27;19931;-65
2022/08/27 09:45:20;;;;;;;;;;;23.80;68.80;;;;;;5132485;27;19919;-66
2022/08/27 09:47:48;;;;;;;;;;;23.90;68.70;;;;;;5136125;27;19926;-65
2022/08/27 09:50:16;;;;;;;;;;;23.80;68.80;;;;;;5131857;27;19981;-67
2022/08/27 09:52:49;;;;;;;;;;;23.70;69.10;;;;;;5132125;27;20395;-67
2022/08/27 09:55:25;;;;;;;;;;;23.80;69.00;;;;;;5125226;27;19980;-67
2022/08/27 09:57:52;;;;;;;;;;;23.80;69.00;;;;;;5131201;27;19971;-66
2022/08/27 10:00:27;;;;;;;;;;;23.90;69.00;;;;;;5126745;27;19920;-67
2022/08/27 10:02:54;;;;;;;;;;;23.90;69.00;;;;;;5131681;27;20568;-66
2022/08/27 10:05:26;;;;;;;;;;;24.00;69.00;;;;;;5131686;27;19919;-67
2022/08/27 10:07:58;;;;;;;;;;;23.90;69.20;;;;;;5130256;27;19926;-67
2022/08/27 10:10:30;;;;;;;;;;;23.90;69.20;;;;;;5131880;27;20030;-66
2022/08/27 10:12:58;;;;;;;;;;;23.90;69.30;;;;;;5131086;27;19967;-65
2022/08/27 10:15:28;;;;;;;;;;;23.80;69.60;;;;;;5128632;27;19919;-67
2022/08/27 10:18:00;;;;;;;;;;;23.80;69.50;;;;;;5132032;27;20008;-67
2022/08/27 10:20:32;;;;;;;;;;;23.90;69.60;;;;;;5131018;27;20057;-67
2022/08/27 10:23:08;;;;;;;;;;;23.90;69.30;;;;;;5131012;27;20281;-65
2022/08/27 10:25:41;;;;;;;;;;;23.80;69.60;;;;;;5128050;27;19920;-66
2022/08/27 10:28:12;;;;;;;;;;;23.80;69.50;;;;;;5126938;27;19919;-68
2022/08/27 10:30:45;;;;;;;;;;;23.80;69.60;;;;;;5129032;27;19946;-66
2022/08/27 10:33:15;;;;;;;;;;;23.80;69.50;;;;;;5129397;27;20304;-67
2022/08/27 10:35:44;;;;;;;;;;;23.70;69.50;;;;;;5129563;27;19923;-66
2022/08/27 10:38:14;;;;;;;;;;;23.60;69.90;;;;;;5126601;27;19930;-67
2022/08/27 10:40:46;;;;;;;;;;;23.70;69.60;;;;;;5126590;27;19940;-64
2022/08/27 10:43:22;;;;;;;;;;;23.70;69.50;;;;;;5130682;27;19926;-66
2022/08/27 10:45:55;;;;;;;;;;;23.70;69.50;;;;;;5129428;27;19926;-67
2022/08/27 10:48:25;;;;;;;;;;;23.70;69.50;;;;;;5129498;27;19919;-68
2022/08/27 10:50:55;;;;;;;;;;;23.80;69.40;;;;;;5131809;27;19919;-68
2022/08/27 10:53:26;;;;;;;;;;;23.80;69.30;;;;;;5127839;27;19927;-66
2022/08/27 10:55:58;;;;;;;;;;;23.80;69.10;;;;;;5123091;27;19927;-67
2022/08/27 10:58:28;;;;;;;;;;;23.80;69.20;;;;;;5125376;27;19919;-67
2022/08/27 11:00:58;;;;;;;;;;;23.90;69.20;;;;;;5121877;27;19942;-67
2022/08/27 11:03:27;;;;;;;;;;;24.00;68.90;;;;;;5130669;27;19919;-68
2022/08/27 11:05:55;;;;;;;;;;;24.00;68.90;;;;;;5128383;27;19934;-67
2022/08/27 11:08:26;;;;;;;;;;;24.10;68.40;;;;;;5129351;27;19920;-67
2022/08/27 11:10:55;;;;;;;;;;;24.20;68.30;;;;;;5130907;27;19949;-67
2022/08/27 11:13:29;;;;;;;;;;;24.20;68.00;;;;;;5130330;27;19972;-67
2022/08/27 11:15:56;;;;;;;;;;;24.30;67.80;;;;;;5128758;27;19965;-65
2022/08/27 11:18:31;;;;;;;;;;;24.30;67.50;;;;;;5133360;27;19966;-67
2022/08/27 11:21:00;;;;;;;;;;;24.40;67.50;;;;;;5134359;27;19970;-67
2022/08/27 11:23:32;;;;;;;;;;;24.50;67.20;;;;;;5138378;27;19919;-67
2022/08/27 11:25:59;;;;;;;;;;;24.60;67.10;;;;;;5129620;27;19919;-67
2022/08/27 11:28:30;;;;;;;;;;;24.50;66.90;;;;;;5123456;27;20010;-67
2022/08/27 11:30:59;;;;;;;;;;;24.50;66.90;;;;;;5134734;27;20338;-67
2022/08/27 11:33:28;;;;;;;;;;;24.50;66.80;;;;;;5134236;27;19919;-68
2022/08/27 11:36:08;;;;;;;;;;;24.50;66.60;;;;;;5133658;27;19927;-67
2022/08/27 11:38:42;;;;;;;;;;;24.50;66.70;;;;;;5128745;27;20014;-66
2022/08/27 11:41:15;;;;;;;;;;;24.50;66.60;;;;;;5133791;27;19927;-68
2022/08/27 11:43:43;;;;;;;;;;;24.60;66.50;;;;;;5128813;27;19919;-67
2022/08/27 11:46:10;;;;;;;;;;;24.50;66.60;;;;;;5134855;27;19926;-66
2022/08/27 11:48:39;;;;;;;;;;;24.60;66.60;;;;;;5130151;27;19923;-66
2022/08/27 11:51:07;;;;;;;;;;;24.60;66.50;;;;;;5130869;27;19924;-66
2022/08/27 11:53:35;;;;;;;;;;;24.50;66.30;;;;;;5127153;27;19919;-67
2022/08/27 11:56:14;;;;;;;;;;;24.50;66.30;;;;;;5133900;27;19930;-69
2022/08/27 11:58:42;;;;;;;;;;;24.50;66.20;;;;;;5131180;27;20314;-65
2022/08/27 12:01:14;;;;;;;;;;;24.60;66.10;;;;;;5127855;27;20281;-66
2022/08/27 12:03:42;;;;;;;;;;;24.60;66.20;;;;;;5131390;27;19919;-66
2022/08/27 12:06:10;;;;;;;;;;;24.60;66.20;;;;;;5133965;27;19919;-65
2022/08/27 12:08:37;;;;;;;;;;;24.50;66.30;;;;;;5128630;27;20356;-66
2022/08/27 12:11:10;;;;;;;;;;;24.60;66.10;;;;;;5133761;27;19919;-66
2022/08/27 12:13:41;;;;;;;;;;;24.60;66.20;;;;;;5128921;27;19930;-67
2022/08/27 12:16:14;;;;;;;;;;;24.70;65.90;;;;;;5134248;27;20011;-67
2022/08/27 12:18:46;;;;;;;;;;;24.90;65.70;;;;;;5127354;27;19923;-65
2022/08/27 12:21:17;;;;;;;;;;;24.90;65.40;;;;;;5124209;27;19919;-65
2022/08/27 12:23:48;;;;;;;;;;;25.00;65.40;;;;;;5131715;27;20022;-65
2022/08/27 12:26:29;;;;;;;;;;;25.00;65.20;;;;;;5131987;27;19919;-66
2022/08/27 12:29:17;;;;;;;;;;;25.00;65.20;;;;;;5132778;27;19926;-67
2022/08/27 12:31:46;;;;;;;;;;;24.90;64.80;;;;;;5133340;27;19925;-65
2022/08/27 12:34:15;;;;;;;;;;;24.90;64.80;;;;;;5130488;27;20432;-66
2022/08/27 12:36:42;;;;;;;;;;;24.90;64.70;;;;;;5132339;27;19942;-65
2022/08/27 12:39:13;;;;;;;;;;;24.90;64.80;;;;;;5127435;27;19930;-65
2022/08/27 12:41:44;;;;;;;;;;;24.90;64.90;;;;;;5133387;27;19942;-66
2022/08/27 12:44:13;;;;;;;;;;;25.00;64.90;;;;;;5131970;27;20388;-67
2022/08/27 12:46:46;;;;;;;;;;;24.90;64.70;;;;;;5136917;27;19926;-65
2022/08/27 12:49:15;;;;;;;;;;;24.90;64.40;;;;;;5130015;27;19919;-66
2022/08/27 12:51:44;;;;;;;;;;;24.90;64.10;;;;;;5127081;27;19969;-67
2022/08/27 12:54:19;;;;;;;;;;;24.90;64.40;;;;;;5126572;27;19919;-66
2022/08/27 12:56:51;;;;;;;;;;;24.80;64.30;;;;;;5131724;27;19919;-66
2022/08/27 12:59:33;;;;;;;;;;;24.90;64.20;;;;;;5129700;27;19930;-66
2022/08/27 13:02:07;;;;;;;;;;;24.80;64.30;;;;;;5118307;27;19919;-67
2022/08/27 13:04:36;;;;;;;;;;;24.70;64.70;;;;;;5133063;27;19920;-66
2022/08/27 13:07:03;;;;;;;;;;;24.70;64.60;;;;;;5129826;27;20391;-66
2022/08/27 13:09:32;;;;;;;;;;;24.70;64.60;;;;;;5132652;27;19927;-66
2022/08/27 13:12:00;;;;;;;;;;;24.80;64.30;;;;;;5125025;27;19949;-66
2022/08/27 13:14:27;;;;;;;;;;;24.90;64.10;;;;;;5129903;27;20381;-66
2022/08/27 13:16:56;;;;;;;;;;;25.10;63.70;;;;;;5132401;27;19929;-66
2022/08/27 13:19:25;;;;;;;;;;;25.10;63.50;;;;;;5124785;27;20394;-66
2022/08/27 13:21:52;;;;;;;;;;;25.10;63.30;;;;;;5133208;27;19919;-65
2022/08/27 13:24:20;;;;;;;;;;;25.10;63.30;;;;;;5131033;27;19926;-66
2022/08/27 13:26:49;;;;;;;;;;;25.10;63.50;;;;;;5130048;27;19919;-66
2022/08/27 13:29:15;;;;;;;;;;;25.10;63.60;;;;;;5125690;27;20053;-66
2022/08/27 13:31:42;;;;;;;;;;;25.00;63.50;;;;;;5134079;27;19924;-67
2022/08/27 13:34:18;;;;;;;;;;;25.00;63.50;;;;;;5128955;27;19920;-66
2022/08/27 13:36:53;;;;;;;;;;;25.10;63.30;;;;;;5132343;27;19920;-65
2022/08/27 13:39:20;;;;;;;;;;;25.10;63.40;;;;;;5123241;27;19965;-65
2022/08/27 13:41:47;;;;;;;;;;;25.10;63.40;;;;;;5128605;27;20009;-65
2022/08/27 13:44:18;;;;;;;;;;;25.20;63.20;;;;;;5126499;27;19919;-66
2022/08/27 13:46:47;;;;;;;;;;;25.20;62.90;;;;;;5129638;27;19972;-66
2022/08/27 13:49:15;;;;;;;;;;;25.30;62.80;;;;;;5131208;27;19926;-67
2022/08/27 13:51:44;;;;;;;;;;;25.40;62.50;;;;;;5134019;27;19919;-66
2022/08/27 13:54:11;;;;;;;;;;;25.40;62.20;;;;;;5129589;27;19924;-68
2022/08/27 13:56:40;;;;;;;;;;;25.40;62.30;;;;;;5132204;27;19923;-66
2022/08/27 13:59:08;;;;;;;;;;;25.50;61.80;;;;;;5130682;27;19956;-66
2022/08/27 14:01:35;;;;;;;;;;;25.60;61.90;;;;;;5129046;27;20384;-67
2022/08/27 14:04:03;;;;;;;;;;;25.60;61.80;;;;;;5118110;27;19943;-67
2022/08/27 14:06:32;;;;;;;;;;;25.60;61.50;;;;;;5130287;27;20273;-67
2022/08/27 14:09:08;;;;;;;;;;;25.70;61.20;;;;;;5124226;27;19920;-66
2022/08/27 14:11:36;;;;;;;;;;;25.70;61.20;;;;;;5127867;27;19919;-66
2022/08/27 14:14:03;;;;;;;;;;;25.70;61.10;;;;;;5127929;27;19920;-66
2022/08/27 14:16:31;;;;;;;;;;;25.60;61.00;;;;;;5132218;27;20294;-66
2022/08/27 14:19:03;;;;;;;;;;;25.60;61.00;;;;;;5130440;27;19919;-67
2022/08/27 14:21:30;;;;;;;;;;;25.60;61.00;;;;;;5128993;27;19919;-66
2022/08/27 14:23:57;;;;;;;;;;;25.60;61.10;;;;;;5131242;27;19935;-66
2022/08/27 14:26:25;;;;;;;;;;;25.60;60.70;;;;;;5132113;27;19930;-67
2022/08/27 14:28:53;;;;;;;;;;;25.50;60.60;;;;;;5132003;27;19919;-66
2022/08/27 14:31:20;;;;;;;;;;;25.60;61.00;;;;;;5127316;27;20023;-65